Data for 11/12/2005

Time Sea-Level Adjusted Pressure Absolute Pressure Temperature Relative Humidity Dew Point   
(mb) (inHg) (mb) (inHg) (C) (F) (%) (C) (F)
00:05 1011 29.85 840 24.81 4.9 40.8 74 0.7 33.2
00:10 1011 29.85 840 24.81 5.1 41.2 73 0.6 33.1
00:15 1011 29.85 840 24.81 5.4 41.7 71 0.6 33.1
00:20 1011 29.85 840 24.81 5.7 42.2 71 0.7 33.3
00:25 1011 29.85 840 24.81 5.8 42.5 70 0.9 33.6
00:30 1011 29.85 840 24.81 5.8 42.4 71 1 33.7
00:35 1011 29.85 840 24.81 4.8 40.7 76 0.9 33.7
00:40 1011 29.85 840 24.81 4.7 40.5 76 0.9 33.6
00:45 1011 29.85 840 24.81 4.6 40.2 77 0.8 33.5
00:50 1011 29.85 840 24.81 4.7 40.5 76 0.8 33.5
00:55 1011 29.85 840 24.81 4.7 40.4 76 0.9 33.6
01:00 1010 29.83 840 24.81 4.7 40.4 76 0.7 33.3
01:05 1010 29.83 840 24.81 4.6 40.4 76 0.8 33.4
01:10 1011 29.85 840 24.81 4.5 40.1 77 0.8 33.4
01:15 1010 29.83 840 24.81 4 39.3 79 0.7 33.2
01:20 1010 29.83 840 24.81 3.8 38.8 80 0.6 33
01:25 1010 29.83 840 24.81 3.5 38.4 81 0.5 32.9
01:30 1010 29.83 840 24.81 3.7 38.7 79 0.5 32.9
01:35 1010 29.83 840 24.81 3.7 38.7 79 0.5 32.9
01:40 1010 29.83 840 24.81 3.6 38.5 80 0.5 33
01:45 1010 29.83 840 24.81 3.4 38.2 81 0.5 32.8
01:50 1010 29.83 840 24.81 3.3 38 81 0.3 32.6
01:55 1010 29.83 840 24.81 3.5 38.3 79 0.3 32.5
02:00 1011 29.85 840 24.81 3.5 38.3 79 0.2 32.4
02:05 1011 29.85 840 24.81 3.6 38.5 79 0.2 32.4
02:10 1010 29.83 840 24.81 3.5 38.3 80 0.3 32.6
02:15 1010 29.83 840 24.81 3.5 38.3 79 0.2 32.4
02:20 1010 29.83 840 24.81 3.6 38.4 78 0.1 32.1
02:25 1010 29.83 840 24.81 3.6 38.5 76 -0.2 31.6
02:30 1010 29.83 840 24.81 3.7 38.7 76 -0.2 31.7
02:35 1010 29.83 840 24.81 3.8 38.8 75 -0.2 31.7
02:40 1010 29.83 840 24.81 3.7 38.7 75 -0.2 31.6
02:45 1011 29.85 840 24.81 3.7 38.7 75 -0.3 31.4
02:50 1011 29.85 840 24.81 3.8 38.8 75 -0.3 31.4
02:55 1011 29.85 840 24.81 3.8 38.8 75 -0.3 31.5
03:00 1011 29.85 840 24.81 3.6 38.5 76 -0.2 31.6
03:05 1011 29.85 840 24.81 3.5 38.3 77 -0.2 31.7
03:10 1011 29.85 840 24.81 3.2 37.7 78 -0.3 31.5
03:15 1011 29.85 840 24.81 2.9 37.2 79 -0.3 31.4
03:20 1011 29.85 840 24.81 2.6 36.7 80 -0.4 31.3
03:25 1011 29.85 840 24.81 2.3 36.2 81 -0.7 30.8
03:30 1011 29.85 840 24.81 2.3 36.1 80 -0.8 30.5
03:35 1011 29.85 840 24.81 2.2 35.9 79 -1 30.2
03:40 1011 29.85 840 24.81 2.2 35.9 79 -1 30.1
03:45 1011 29.85 841 24.83 2.1 35.8 81 -0.9 30.4
03:50 1011 29.85 841 24.83 1.8 35.2 86 -0.3 31.4
03:55 1012 29.88 841 24.83 1.5 34.7 91 0.1 32.2
04:00 1012 29.88 841 24.83 1 33.7 94 0.2 32.3
04:05 1012 29.88 841 24.83 0.7 33.2 96 0.1 32.2
04:10 1012 29.88 841 24.83 0.6 33.1 96 0.1 32.2
04:15 1012 29.88 841 24.83 0.5 32.9 97 0.1 32.1
04:20 1012 29.88 841 24.83 0.4 32.7 97 0 32.1
04:25 1012 29.88 841 24.83 0.3 32.6 98 0 32
04:30 1012 29.88 841 24.83 0.3 32.6 98 0 32
04:35 1012 29.88 841 24.83 0.3 32.6 98 0.1 32.1
04:40 1012 29.88 841 24.83 0.4 32.7 98 0.1 32.1
04:45 1012 29.88 841 24.83 0.5 32.9 98 0.2 32.3
04:50 1012 29.88 841 24.83 0.5 32.9 98 0.2 32.3
04:55 1012 29.88 841 24.83 0.6 33.1 97 0.2 32.4
05:00 1012 29.88 841 24.83 0.7 33.3 97 0.3 32.5
05:05 1012 29.88 841 24.83 0.7 33.2 96 0.2 32.3
05:10 1012 29.88 842 24.86 0.7 33.2 96 0.2 32.3
05:15 1012 29.88 842 24.86 0.5 33 95 -0.2 31.7
05:20 1012 29.88 842 24.86 0.5 32.9 95 -0.2 31.6
05:25 1012 29.88 842 24.86 0.4 32.7 96 -0.2 31.7
05:30 1012 29.88 842 24.86 0.4 32.7 96 -0.1 31.7
05:35 1012 29.88 842 24.86 0.4 32.7 97 -0.1 31.8
05:40 1012 29.88 842 24.86 0.3 32.5 97 -0.2 31.7
05:45 1012 29.88 842 24.86 0.2 32.4 98 -0.1 31.8
05:50 1013 29.91 842 24.86 0.1 32.3 98 -0.2 31.7
05:55 1013 29.91 842 24.86 0.2 32.4 98 -0.1 31.9
06:00 1013 29.91 842 24.86 0.2 32.4 99 0 32
06:05 1013 29.91 842 24.86 0.2 32.4 98 -0 32
06:10 1013 29.91 842 24.86 0.2 32.4 99 0 32
06:15 1013 29.91 842 24.86 0.2 32.4 99 0 32.1
06:20 1013 29.91 842 24.86 0.2 32.4 99 0.1 32.1
06:25 1013 29.91 842 24.86 0.2 32.4 99 0.1 32.1
06:30 1013 29.91 842 24.86 0.2 32.4 99 -0 32
06:35 1013 29.91 842 24.86 0 32.1 99 -0.1 31.7
06:40 1013 29.91 842 24.86 0 32 98 -0.2 31.6
06:45 1013 29.91 842 24.86 -0.1 31.8 98 -0.5 31.1
06:50 1013 29.91 842 24.86 -0.2 31.7 97 -0.6 31
06:55 1013 29.91 842 24.86 -0.1 31.7 97 -0.6 31
07:00 1013 29.91 842 24.86 -0.1 31.9 97 -0.6 31
07:05 1013 29.91 842 24.86 -0.1 31.9 96 -0.7 30.8
07:10 1013 29.91 842 24.86 0.1 32.1 96 -0.6 31
07:15 1013 29.91 842 24.86 0.1 32.1 94 -0.8 30.6
07:20 1013 29.91 843 24.89 0.2 32.3 94 -0.7 30.7
07:25 1013 29.91 843 24.89 0.3 32.6 93 -0.7 30.8
07:30 1013 29.91 843 24.89 0.3 32.6 94 -0.5 31.1
07:35 1013 29.91 842 24.86 0.1 32.2 96 -0.5 31
07:40 1013 29.91 843 24.89 0 32.1 95 -0.6 30.8
07:45 1013 29.91 843 24.89 0.1 32.2 96 -0.5 31.1
07:50 1013 29.91 843 24.89 0.2 32.3 94 -0.7 30.8
07:55 1013 29.91 843 24.89 0.3 32.6 93 -0.7 30.7
08:00 1013 29.91 843 24.89 0.5 32.8 91 -0.8 30.6
08:05 1014 29.94 843 24.89 0.6 33 90 -0.9 30.5
08:10 1014 29.94 843 24.89 0.6 33.1 89 -0.9 30.3
08:15 1014 29.94 843 24.89 0.6 33.2 90 -0.9 30.4
08:20 1014 29.94 843 24.89 0.8 33.4 87 -1.2 29.9
08:25 1014 29.94 843 24.89 0.9 33.6 85 -1.4 29.6
08:30 1014 29.94 843 24.89 0.9 33.6 85 -1.4 29.6
08:35 1014 29.94 843 24.89 1 33.8 87 -0.9 30.4
08:40 1014 29.94 843 24.89 1.2 34.1 87 -0.8 30.6
08:45 1014 29.94 843 24.89 1.6 34.9 85 -0.7 30.8
08:50 1014 29.94 843 24.89 1.8 35.3 82 -1 30.2
08:55 1014 29.94 843 24.89 1.9 35.3 81 -1 30.2
09:00 1014 29.94 843 24.89 2 35.7 82 -0.8 30.6
09:05 1014 29.94 843 24.89 1.9 35.5 82 -0.9 30.4
09:10 1014 29.94 843 24.89 2.3 36.1 80 -0.8 30.5
09:15 1014 29.94 843 24.89 2.6 36.7 78 -0.9 30.5
09:20 1014 29.94 844 24.92 2.7 36.9 76 -1.1 29.9
09:25 1014 29.94 844 24.92 2.8 37 77 -0.9 30.4
09:30 1015 29.97 844 24.92 3.1 37.6 77 -0.5 31
09:35 1015 29.97 844 24.92 3 37.4 78 -0.4 31.2
09:40 1015 29.97 844 24.92 2.8 37.1 76 -0.9 30.3
09:45 1015 29.97 844 24.92 3.4 38.2 74 -0.8 30.5
09:50 1015 29.97 844 24.92 3.8 38.9 71 -0.9 30.4
09:55 1015 29.97 844 24.92 3.9 39.1 71 -0.9 30.3
10:00 1015 29.97 844 24.92 3.7 38.7 71 -1 30.2
10:05 1015 29.97 844 24.92 3.2 37.8 74 -1 30.2
10:10 1015 29.97 844 24.92 3.2 37.7 71 -1.5 29.3
10:15 1015 29.97 845 24.95 3.4 38.1 71 -1.3 29.6
10:20 1015 29.97 845 24.95 2.9 37.2 71 -1.8 28.8
10:25 1016 30 845 24.95 3.1 37.6 65 -2.9 26.7
10:30 1016 30 845 24.95 3.3 37.9 58 -4.3 24.2
10:35 1016 30 845 24.95 3.8 38.8 54 -4.7 23.6
10:40 1016 30 845 24.95 3.7 38.6 56 -4.4 24
10:45 1016 30 845 24.95 3.7 38.7 56 -4.1 24.5
10:50 1016 30 845 24.95 3.3 38 55 -4.9 23.2
10:55 1016 30 845 24.95 2.9 37.1 55 -5.4 22.3
11:00 1016 30 845 24.95 2.5 36.5 58 -4.9 23.1
11:05 1016 30 845 24.95 2.8 37.1 56 -5.1 22.8
11:10 1016 30 846 24.98 3 37.5 57 -4.6 23.7
11:15 1016 30 845 24.95 2.7 36.9 56 -5.1 22.8
11:20 1016 30 845 24.95 2.3 36.2 57 -5.3 22.4
11:25 1016 30 845 24.95 2.1 35.8 57 -5.5 22.1
11:30 1016 30 845 24.95 2.3 36.1 55 -5.9 21.4
11:35 1016 30 846 24.98 2.4 36.3 53 -6.3 20.7
11:40 1016 30 846 24.98 3 37.3 51 -6.2 20.9
11:45 1017 30.03 846 24.98 3 37.5 52 -5.9 21.3
11:50 1017 30.03 846 24.98 3.8 38.8 49 -5.9 21.3
11:55 1017 30.03 846 24.98 4.2 39.5 50 -5.4 22.3
12:00 1016 30 846 24.98 4.3 39.8 45 -6.5 20.3
12:05 1016 30 846 24.98 4.4 39.9 45 -6.5 20.3
12:10 1017 30.03 846 24.98 4.7 40.4 44 -6.6 20.1
12:15 1017 30.03 846 24.98 5 41 45 -6 21.2
12:20 1017 30.03 846 24.98 4.7 40.4 44 -6.5 20.3
12:25 1017 30.03 846 24.98 4.1 39.4 46 -6.5 20.4
12:30 1017 30.03 846 24.98 3.8 38.8 47 -6.5 20.4
12:35 1017 30.03 846 24.98 3.6 38.5 44 -7.6 18.3
12:40 1017 30.03 846 24.98 3.3 38 44 -7.8 18
12:45 1017 30.03 846 24.98 2.7 36.8 50 -6.7 19.9
12:50 1017 30.03 846 24.98 2.4 36.2 47 -7.7 18.1
12:55 1017 30.03 846 24.98 2.3 36.2 49 -7.4 18.7
13:00 1017 30.03 847 25.01 2.2 36 48 -7.6 18.3
13:05 1017 30.03 847 25.01 2.8 37 46 -7.7 18.1
13:10 1017 30.03 847 25.01 3.3 38 46 -7.2 19.1
13:15 1017 30.03 847 25.01 4 39.1 46 -6.6 20.2
13:20 1017 30.03 847 25.01 4.2 39.5 46 -6.4 20.4
13:25 1017 30.03 847 25.01 4.1 39.4 47 -6.1 21
13:30 1018 30.06 847 25.01 4.4 40 47 -5.8 21.6
13:35 1018 30.06 847 25.01 4.6 40.2 46 -6 21.2
13:40 1018 30.06 847 25.01 3.9 39.1 48 -6 21.2
13:45 1018 30.06 847 25.01 3.8 38.8 48 -6.2 20.9
13:50 1018 30.06 847 25.01 3.7 38.7 50 -5.8 21.5
13:55 1018 30.06 847 25.01 4.3 39.8 47 -6 21.2
14:00 1018 30.06 847 25.01 4.6 40.3 41 -7.6 18.2
14:05 1018 30.06 847 25.01 4.6 40.3 42 -7.1 19.2
14:10 1018 30.06 847 25.01 4.3 39.8 42 -7.4 18.7
14:15 1018 30.06 847 25.01 4.1 39.4 42 -7.7 18.1
14:20 1018 30.06 847 25.01 4 39.2 36 -9.6 14.7
14:25 1018 30.06 847 25.01 4 39.2 35 -10 13.9
14:30 1018 30.06 847 25.01 4 39.2 35 -10.1 13.9
14:35 1018 30.06 847 25.01 4.1 39.4 34 -10.4 13.3
14:40 1018 30.06 847 25.01 4.3 39.8 35 -9.9 14.1
14:45 1018 30.06 847 25.01 4.4 40 35 -9.7 14.5
14:50 1018 30.06 847 25.01 4.4 39.9 35 -9.8 14.4
14:55 1018 30.06 847 25.01 4.3 39.7 34 -10.2 13.6
15:00 1018 30.06 848 25.04 4.2 39.5 35 -10 14
15:05 1018 30.06 848 25.04 4.3 39.7 34 -10.3 13.4
15:10 1019 30.09 848 25.04 4.2 39.6 35 -10 14
15:15 1019 30.09 848 25.04 4.4 40 33 -10.4 13.3
15:20 1019 30.09 848 25.04 4.5 40.1 33 -10.5 13.2
15:25 1019 30.09 848 25.04 4.4 39.9 34 -10.3 13.5
15:30 1019 30.09 848 25.04 4.1 39.4 35 -9.9 14.1
15:35 1019 30.09 848 25.04 4.2 39.5 34 -10.2 13.6
15:40 1019 30.09 848 25.04 3.9 39 34 -10.5 13
15:45 1019 30.09 848 25.04 3.6 38.5 36 -10.2 13.7
15:50 1019 30.09 848 25.04 3.7 38.6 36 -10 14.1
15:55 1019 30.09 848 25.04 3.6 38.5 35 -10.5 13
16:00 1019 30.09 848 25.04 3.6 38.5 35 -10.3 13.4
16:05 1019 30.09 848 25.04 3.5 38.3 36 -10.4 13.3
16:10 1019 30.09 848 25.04 3.3 38 38 -9.6 14.7
16:15 1019 30.09 848 25.04 3.2 37.8 38 -9.7 14.6
16:20 1019 30.09 849 25.07 3.2 37.8 39 -9.5 15
16:25 1019 30.09 849 25.07 3.1 37.6 40 -9.4 15.1
16:30 1019 30.09 849 25.07 3 37.3 40 -9.4 15.1
16:35 1019 30.09 849 25.07 2.5 36.6 40 -9.7 14.5
16:40 1019 30.09 849 25.07 2.1 35.8 41 -9.8 14.4
16:45 1019 30.09 849 25.07 2 35.6 41 -9.9 14.2
16:50 1020 30.12 849 25.07 1.7 35.1 43 -9.6 14.6
16:55 1020 30.12 849 25.07 1.5 34.7 44 -9.5 14.9
17:00 1020 30.12 849 25.07 1.3 34.3 45 -9.3 15.2
17:05 1020 30.12 849 25.07 1.2 34.1 43 -10.1 13.9
17:10 1020 30.12 849 25.07 1.2 34.2 43 -10 13.9
17:15 1020 30.12 849 25.07 1.2 34.2 43 -10 14
17:20 1020 30.12 849 25.07 1.1 34 45 -9.6 14.8
17:25 1020 30.12 849 25.07 1.1 33.9 44 -10 14.1
17:30 1020 30.12 850 25.1 0.9 33.7 45 -9.7 14.5
17:35 1020 30.12 850 25.1 0.9 33.6 45 -9.7 14.6
17:40 1021 30.15 850 25.1 0.8 33.4 46 -9.7 14.6
17:45 1021 30.15 850 25.1 0.7 33.2 46 -9.7 14.6
17:50 1021 30.15 850 25.1 0.4 32.8 47 -9.5 14.9
17:55 1021 30.15 850 25.1 0.3 32.6 48 -9.4 15.1
18:00 1021 30.15 850 25.1 0.2 32.3 49 -9.2 15.4
18:05 1021 30.15 850 25.1 -0.7 30.8 53 -9.1 15.7
18:10 1021 30.15 850 25.1 -1.2 29.9 52 -9.7 14.5
18:15 1021 30.15 850 25.1 -1 30.3 53 -9.4 15.1
18:20 1021 30.15 850 25.1 -0.8 30.5 53 -9.3 15.2
18:25 1021 30.15 850 25.1 -0.7 30.7 52 -9.4 15.1
18:30 1021 30.15 850 25.1 -0.6 30.9 51 -9.5 14.9
18:35 1021 30.15 850 25.1 -0.6 30.8 50 -9.8 14.4
18:40 1021 30.15 850 25.1 -0.6 30.9 51 -9.6 14.7
18:45 1021 30.15 850 25.1 -0.6 30.9 50 -9.8 14.4
18:50 1021 30.15 851 25.13 -0.6 30.9 51 -9.6 14.7
18:55 1021 30.15 851 25.13 -0.7 30.8 51 -9.6 14.7
19:00 1022 30.18 851 25.13 -0.8 30.6 51 -9.6 14.8
19:05 1022 30.18 851 25.13 -1 30.1 54 -9.3 15.2
19:10 1022 30.18 851 25.13 -1.5 29.3 55 -9.4 15
19:15 1022 30.18 851 25.13 -1.6 29.2 54 -9.7 14.5
19:20 1022 30.18 851 25.13 -1.7 28.9 58 -8.9 16
19:25 1022 30.18 851 25.13 -2.3 27.9 57 -9.8 14.4
19:30 1022 30.18 851 25.13 -2 28.5 53 -10.4 13.3
19:35 1022 30.18 851 25.13 -2 28.4 54 -10.1 13.8
19:40 1022 30.18 851 25.13 -2.5 27.4 55 -10.5 13.2
19:45 1022 30.18 851 25.13 -2.3 27.9 55 -10.2 13.6
19:50 1022 30.18 851 25.13 -1.8 28.8 53 -10.1 13.8
19:55 1022 30.18 851 25.13 -1.6 29.1 53 -10 14.1
20:00 1022 30.18 851 25.13 -1.5 29.3 52 -10 14
20:05 1022 30.18 851 25.13 -1.5 29.3 53 -10 14
20:10 1022 30.18 851 25.13 -1.5 29.3 54 -9.7 14.6
20:15 1022 30.18 852 25.16 -2.3 27.8 56 -9.9 14.2
20:20 1022 30.18 852 25.16 -3.7 25.3 61 -10.2 13.7
20:25 1022 30.18 852 25.16 -3.7 25.4 59 -10.5 13.1
20:30 1022 30.18 852 25.16 -3.4 25.8 58 -10.7 12.8
20:35 1022 30.18 852 25.16 -3.6 25.6 59 -10.4 13.2
20:40 1022 30.18 852 25.16 -3.7 25.4 60 -10.4 13.3
20:45 1023 30.21 852 25.16 -3.6 25.6 60 -10.2 13.6
20:50 1022 30.18 852 25.16 -3.6 25.5 62 -9.8 14.4
20:55 1022 30.18 852 25.16 -3.4 25.8 64 -9.3 15.2
21:00 1022 30.18 852 25.16 -3.7 25.3 67 -8.9 15.9
21:05 1022 30.18 852 25.16 -4 24.7 68 -9.1 15.5
21:10 1022 30.18 852 25.16 -4.1 24.6 65 -9.8 14.4
21:15 1022 30.18 852 25.16 -4.1 24.6 63 -10.1 13.9
21:20 1022 30.18 852 25.16 -3.7 25.3 61 -10.2 13.7
21:25 1022 30.18 852 25.16 -3.8 25.2 62 -10 14
21:30 1022 30.18 852 25.16 -4.1 24.7 64 -9.9 14.2
21:35 1023 30.21 852 25.16 -4 24.7 63 -10.1 13.9
21:40 1023 30.21 852 25.16 -4.1 24.6 64 -9.9 14.2
21:45 1023 30.21 852 25.16 -4.6 23.7 69 -9.5 14.9
21:50 1023 30.21 852 25.16 -4.7 23.5 69 -9.6 14.7
21:55 1023 30.21 852 25.16 -4.5 23.9 68 -9.6 14.8
22:00 1023 30.21 852 25.16 -4.2 24.5 64 -10 14
22:05 1023 30.21 852 25.16 -4 24.9 64 -9.9 14.2
22:10 1023 30.21 852 25.16 -4.2 24.5 63 -10.2 13.6
22:15 1023 30.21 852 25.16 -4.5 23.8 63 -10.5 13.2
22:20 1023 30.21 852 25.16 -4.7 23.5 65 -10.4 13.3
22:25 1023 30.21 852 25.16 -4.6 23.6 65 -10.2 13.7
22:30 1023 30.21 852 25.16 -5.4 22.4 71 -9.8 14.3
22:35 1023 30.21 852 25.16 -5.6 21.9 70 -10.3 13.5
22:40 1023 30.21 852 25.16 -5.4 22.3 70 -10.1 13.9
22:45 1023 30.21 852 25.16 -5.4 22.3 69 -10.2 13.6
22:50 1023 30.21 852 25.16 -5.1 22.8 68 -10.1 13.9
22:55 1023 30.21 852 25.16 -4.9 23.2 66 -10.2 13.6
23:00 1023 30.21 852 25.16 -4.4 24 65 -10 14
23:05 1023 30.21 852 25.16 -4.2 24.5 63 -10.2 13.7
23:10 1023 30.21 852 25.16 -4.7 23.6 65 -10.4 13.4
23:15 1023 30.21 852 25.16 -4.8 23.4 65 -10.4 13.3
23:20 1023 30.21 852 25.16 -5.1 22.9 68 -10 13.9
23:25 1023 30.21 852 25.16 -4.9 23.1 67 -10.2 13.7
23:30 1023 30.21 852 25.16 -4.7 23.5 66 -10.1 13.9
23:35 1023 30.21 852 25.16 -4.4 24 67 -9.8 14.4
23:40 1023 30.21 852 25.16 -4.4 24.1 67 -9.7 14.6
23:45 1022 30.18 852 25.16 -4.4 24 66 -9.8 14.3
23:50 1023 30.21 852 25.16 -4.4 24.1 66 -9.8 14.4
23:55 1022 30.18 852 25.16 -4.5 23.9 67 -9.7 14.6
24:00 1022 30.18 852 25.16 -4.6 23.7 68 -9.6 14.8